Flight Track Log - Related Links

Times and Time Zones

All times are in EDT time to prevent confusion due to time zone crossing. See the EJA929 flight status page for this flight to view local times or setup timezone preferences in your user account.

Time Position Orientation Groundspeed Altitude Reporting Facility
EDT Latitude Longitude Course Direction KTS MPH feet Rate Location/Type
Fri 09:48:15 AM 47.5117 -122.2878 146° Southeast 175 201 1,300  Level Seattle Center
Fri 09:48:46 AM 47.4908 -122.2667 146° Southeast 196 226 2,500 2,471 Climbing Seattle Center
Fri 09:49:40 AM 47.4442 -122.2233 148° Southeast 211 243 4,800 1,488 Climbing Seattle Center
Fri 09:50:47 AM 47.3892 -122.1819 153° Southeast 214 246 5,500 1,377 Climbing Seattle Center
Fri 09:51:42 AM 47.3275 -122.1931 187° South 274 315 7,600 2,683 Climbing Seattle Center
Fri 09:52:50 AM 47.3128 -122.3261 261° West 293 337 11,000 2,744 Climbing Seattle Center
Fri 09:53:51 AM 47.3206 -122.4547 275° West 316 364 13,500 2,213 Climbing Seattle Center
Fri 09:54:52 AM 47.3325 -122.5933 277° West 340 391 15,500 1,934 Climbing Seattle Center
Fri 09:55:52 AM 47.3222 -122.7419 264° West 370 426 17,400 1,736 Climbing Seattle Center
Fri 09:56:53 AM 47.2894 -122.8819 251° West 376 433 19,000 1,770 Climbing Seattle Center
Fri 09:57:54 AM 47.2511 -123.0247 248° West 378 435 21,000 1,918 Climbing Seattle Center
Fri 09:58:55 AM 47.2133 -123.1675 249° West 377 434 22,900 1,736 Climbing Seattle Center
Fri 09:59:55 AM 47.1719 -123.3158 248° West 393 452 24,500 1,587 Climbing Seattle Center
Fri 10:00:56 AM 47.0747 -123.4094 213° Southwest 427 491 26,100 1,721 Climbing Seattle Center
Fri 10:01:57 AM 46.9217 -123.4044 179° South 462 532 28,000 1,672 Climbing Seattle Center
Fri 10:02:58 AM 46.7897 -123.3961 178° South 478 550 29,500 1,488 Climbing Seattle Center
Fri 10:03:58 AM 46.6525 -123.3875 178° South 497 572 31,000 1,537 Climbing Seattle Center
Fri 10:04:59 AM 46.5108 -123.3786 178° South 515 593 32,600 1,525 Climbing Seattle Center
Fri 10:06:00 AM 46.3706 -123.3700 178° South 531 611 34,100 1,475 Climbing Seattle Center
Fri 10:07:01 AM 46.2242 -123.3600 177° South 530 610 35,600 1,388 Climbing Seattle Center
Fri 10:08:01 AM 46.0756 -123.3519 178° South 535 616 36,900 694 Climbing Seattle Center
Fri 10:09:02 AM 45.9286 -123.3408 177° South 531 611 37,000 49 Climbing Seattle Center
Fri 10:10:03 AM 45.7781 -123.3306 177° South 538 619 37,000  Level Seattle Center
Fri 10:11:04 AM 45.6297 -123.3211 177° South 536 617 37,000  Level Seattle Center
Fri 10:12:05 AM 45.4794 -123.3108 177° South 539 620 37,000  Level Seattle Center
Fri 10:13:05 AM 45.3314 -123.2994 177° South 533 613 37,000  Level Seattle Center
Fri 10:14:06 AM 45.1825 -123.2894 177° South 533 613 37,000  Level Seattle Center
Fri 10:15:07 AM 45.0328 -123.2814 178° South 531 611 37,000  Level Seattle Center
Fri 10:16:08 AM 44.8844 -123.2706 177° South 524 603 37,000  Level Seattle Center
Fri 10:17:09 AM 44.7361 -123.2603 177° South 526 605 37,000  Level Seattle Center
Fri 10:18:09 AM 44.5889 -123.2519 178° South 527 606 37,000  Level Seattle Center
Fri 10:19:10 AM 44.4128 -123.2403 177° South 527 606 37,000  Level Seattle Center
Fri 10:20:11 AM 44.2664 -123.2303 177° South 527 606 37,000  Level Seattle Center
Fri 10:21:12 AM 44.1208 -123.2222 178° South 527 606 37,000  Level Seattle Center
Fri 10:22:13 AM 43.9858 -123.2061 175° South 525 604 37,000  Level Seattle Center
Fri 10:23:14 AM 43.8394 -123.1875 175° South 526 605 37,000  Level Seattle Center
Fri 10:24:15 AM 43.6931 -123.1703 175° South 527 606 37,000  Level Seattle Center
Fri 10:25:15 AM 43.5475 -123.1533 175° South 526 605 37,000  Level Seattle Center
Fri 10:26:16 AM 43.4006 -123.1350 175° South 529 609 37,000  Level Seattle Center
Fri 10:27:17 AM 43.2542 -123.1175 175° South 528 608 37,000  Level Seattle Center
Fri 10:28:18 AM 43.0789 -123.0961 175° South 526 605 37,000  Level Seattle Center
Fri 10:29:19 AM 42.9331 -123.0781 175° South 526 605 37,000  Level Seattle Center
Fri 10:30:20 AM 42.7872 -123.0603 175° South 525 604 37,000  Level Seattle Center
Fri 10:31:21 AM 42.6631 -123.0458 175° South 523 602 37,000  Level Seattle Center
Fri 10:32:22 AM 42.5175 -123.0283 175° South 524 603 37,000  Level Seattle Center
Fri 10:33:23 AM 42.3533 -123.0092 175° South 517 595 37,000  Level Seattle Center
Fri 10:34:24 AM 42.2094 -122.9931 175° South 516 594 37,000  Level Seattle Center
Fri 10:35:24 AM 42.0589 -122.9767 175° South 516 594 37,000  Level Seattle Center
Fri 10:36:25 AM 41.9103 -122.9594 175° South 520 598 37,000  Level Seattle Center
Fri 10:37:26 AM 41.7667 -122.9447 176° South 521 600 37,000  Level Seattle Center
Fri 10:38:27 AM 41.6225 -122.9269 175° South 522 601 37,000  Level Seattle Center
Fri 10:39:28 AM 41.4786 -122.9119 176° South 519 597 37,000  Level Seattle Center
Fri 10:40:29 AM 41.3336 -122.8964 175° South 522 601 37,000  Level Seattle Center
Fri 10:41:30 AM 41.1897 -122.8797 175° South 519 597 37,000  Level Seattle Center
Fri 10:42:31 AM 41.0483 -122.8639 175° South 511 588 37,000  Level Seattle Center
Fri 10:42:52 AM 40.9842 -122.8575 176° South 505 581 37,000  Level Oakland Center
Fri 10:43:54 AM 40.8439 -122.8422 175° South 507 583 37,000  Level Oakland Center
Fri 10:44:55 AM 40.7053 -122.8264 175° South 504 580 37,000  Level Oakland Center
Fri 10:45:56 AM 40.5672 -122.8108 175° South 502 578 37,000  Level Oakland Center
Fri 10:46:58 AM 40.4319 -122.7964 175° South 494 568 37,000  Level Oakland Center
Fri 10:47:59 AM 40.2983 -122.7819 175° South 488 562 37,000  Level Oakland Center
Fri 10:49:00 AM 40.1644 -122.7667 175° South 489 563 37,000 -49 Level Oakland Center
Fri 10:50:01 AM 40.0025 -122.7500 175° South 491 565 36,900 -829 Descending Oakland Center
Fri 10:51:03 AM 39.8711 -122.7353 175° South 480 552 35,300 -1,854 Descending Oakland Center
Fri 10:52:04 AM 39.7411 -122.7211 175° South 474 545 33,100 -2,164 Descending Oakland Center
Fri 10:53:05 AM 39.6092 -122.7067 175° South 480 552 30,900 -2,049 Descending Oakland Center
Fri 10:54:07 AM 39.4761 -122.6917 175° South 481 554 28,900 -2,000 Descending Oakland Center
Fri 10:55:08 AM 39.3411 -122.6783 176° South 487 560 26,800 -2,164 Descending Oakland Center
Fri 10:56:09 AM 39.1983 -122.6628 175° South 487 560 24,500 -2,098 Descending Oakland Center
Fri 10:57:11 AM 39.0667 -122.6483 175° South 479 551 22,500 -2,000 Descending Oakland Center
Fri 10:58:12 AM 38.9328 -122.6339 175° South 463 533 20,400 -2,016 Descending Oakland Center
Fri 10:59:13 AM 38.8092 -122.6203 175° South 449 517 18,400 -1,869 Descending Oakland Center
Fri 11:00:14 AM 38.6883 -122.6078 175° South 437 503 16,600 -1,659 Descending Oakland Center
Fri 11:01:16 AM 38.5700 -122.5950 175° South 428 493 15,000 -1,561 Descending Oakland Center
Fri 11:02:17 AM 38.4517 -122.5839 176° South 427 491 13,400 -1,721 Descending Oakland Center
Fri 11:03:18 AM 38.3422 -122.5728 175° South 395 455 11,500 -1,854 Descending Oakland Center
Fri 11:04:20 AM 38.2289 -122.5606 175° South 340 391 9,600 -1,805 Descending Oakland Center
Fri 11:05:21 AM 38.1481 -122.5525 176° South 301 346 7,800 -1,328 Descending Oakland Center
Fri 11:06:22 AM 38.0675 -122.5419 174° South 291 335 6,900 -934 Descending Oakland Center
Fri 11:07:23 AM 38.0003 -122.4850 146° Southeast 291 335 5,900 -780 Descending Oakland Center
Fri 11:08:25 AM 37.9506 -122.4147 132° Southeast 268 308 5,300 -488 Descending Oakland Center
Fri 11:09:26 AM 37.9106 -122.3486 127° Southeast 241 277 4,900 -197 Descending Oakland Center
Fri 11:10:27 AM 37.8700 -122.2817 127° Southeast 238 274 4,900 70 Level Oakland Center
Fri 11:10:52 AM 37.8500 -122.2500 129° Southeast 240 276 5,000 -71 Climbing Northern Cal TRACON
Fri 11:11:52 AM 37.8167 -122.1833 122° Southeast 242 278 4,800 -526 Descending Northern Cal TRACON
Fri 11:12:46 AM 37.7833 -122.1333 130° Southeast 221 254 4,000 -950 Descending Northern Cal TRACON
Fri 11:13:52 AM 37.7333 -122.1000 152° Southeast 196 226 2,900 -1,250 Descending Northern Cal TRACON
Fri 11:14:46 AM 37.7167 -122.1500 247° West 164 189 1,500 -1,421 Descending Northern Cal TRACON
Fri 11:15:46 AM 37.7167 -122.2000 270° West 140 161 200 -1,300 Descending Northern Cal TRACON

Login

Don't have an account? Register now (free) for customized features, flight alerts, and more!